createdAt,value
2018-03-07T00:01:37.414Z,78.67
2018-03-07T00:04:05.900Z,74.27
2018-03-07T00:06:34.370Z,82.63
2018-03-07T00:09:02.870Z,79.77
2018-03-07T00:11:31.370Z,79.83
2018-03-07T00:13:59.853Z,68.77
2018-03-07T00:16:28.348Z,74.87
2018-03-07T00:18:56.848Z,76.67
2018-03-07T00:21:25.363Z,78.47
2018-03-07T00:23:53.834Z,76.17
2018-03-07T00:26:22.331Z,81.87
2018-03-07T00:28:50.790Z,79.40
2018-03-07T00:31:19.293Z,77.90
2018-03-07T00:33:47.806Z,81.33
2018-03-07T00:36:16.275Z,83.07
2018-03-07T00:38:44.774Z,79.93
2018-03-07T00:41:13.262Z,83.83
2018-03-07T00:43:41.779Z,77.77
2018-03-07T00:46:10.243Z,79.37
2018-03-07T00:48:38.721Z,75.63
2018-03-07T00:51:07.222Z,85.00
2018-03-07T00:53:35.684Z,82.20
2018-03-07T00:56:04.201Z,77.83
2018-03-07T00:58:32.713Z,82.27
2018-03-07T01:01:01.167Z,71.27
2018-03-07T01:03:30.338Z,70.37
2018-03-07T01:05:58.802Z,65.17
2018-03-07T01:08:27.262Z,64.70
2018-03-07T01:10:55.747Z,65.90
2018-03-07T01:13:24.246Z,65.87
2018-03-07T01:15:52.709Z,55.77
2018-03-07T01:18:21.214Z,50.73
2018-03-07T01:20:49.668Z,57.23
2018-03-07T01:23:18.159Z,55.47
2018-03-07T01:25:46.618Z,52.47
2018-03-07T01:28:15.118Z,49.70
2018-03-07T01:30:43.623Z,52.50
2018-03-07T01:33:12.081Z,53.10
2018-03-07T01:35:40.543Z,46.53
2018-03-07T01:38:09.058Z,51.83
2018-03-07T01:40:37.584Z,55.87
2018-03-07T01:43:06.042Z,52.77
2018-03-07T01:45:34.542Z,63.07
2018-03-07T01:48:02.998Z,63.17
2018-03-07T01:50:31.514Z,60.80
2018-03-07T01:52:59.983Z,62.37
2018-03-07T01:55:28.442Z,64.10
2018-03-07T01:57:56.923Z,62.20
2018-03-07T02:00:25.417Z,67.87
2018-03-07T02:02:53.913Z,71.37
2018-03-07T02:05:22.418Z,72.57
2018-03-07T02:07:50.919Z,66.13
2018-03-07T02:10:19.414Z,62.07
2018-03-07T02:12:47.929Z,68.10
2018-03-07T02:15:16.390Z,65.07
2018-03-07T02:17:44.873Z,60.50
2018-03-07T02:20:13.370Z,59.90
2018-03-07T02:22:41.871Z,57.60
2018-03-07T02:25:10.398Z,55.97
2018-03-07T02:27:38.870Z,59.23
2018-03-07T02:30:07.383Z,53.83
2018-03-07T02:32:35.851Z,49.47
2018-03-07T02:35:04.354Z,56.47
2018-03-07T02:37:32.895Z,52.30
2018-03-07T02:40:01.370Z,55.10
2018-03-07T02:42:29.888Z,56.67
2018-03-07T02:44:58.342Z,57.17
2018-03-07T02:47:26.839Z,53.97
2018-03-07T02:49:55.334Z,58.33
2018-03-07T02:52:23.802Z,50.07
2018-03-07T02:54:52.302Z,51.50
2018-03-07T02:57:20.827Z,53.10
2018-03-07T02:59:49.283Z,54.60
2018-03-07T03:02:17.773Z,55.77
2018-03-07T03:04:46.285Z,54.47
2018-03-07T03:07:14.755Z,57.97
2018-03-07T03:09:43.237Z,54.63
2018-03-07T03:12:11.735Z,57.77
2018-03-07T03:14:40.202Z,58.70
2018-03-07T03:17:08.699Z,58.30
2018-03-07T03:19:37.174Z,52.73
2018-03-07T03:22:05.689Z,53.20
2018-03-07T03:24:34.158Z,56.57
2018-03-07T03:27:02.622Z,53.67
2018-03-07T03:29:31.162Z,49.83
2018-03-07T03:31:59.625Z,45.43
2018-03-07T03:34:28.128Z,46.87
2018-03-07T03:36:56.594Z,51.87
2018-03-07T03:39:25.086Z,42.03
2018-03-07T03:41:53.586Z,36.73
2018-03-07T03:44:22.046Z,37.17
2018-03-07T03:46:50.580Z,37.63
2018-03-07T03:49:19.042Z,35.90
2018-03-07T03:51:47.512Z,40.67
2018-03-07T03:54:16.034Z,38.73
2018-03-07T03:56:44.531Z,37.30
2018-03-07T03:59:13.043Z,39.67
2018-03-07T04:01:41.541Z,39.13
2018-03-07T04:04:10.019Z,37.07
2018-03-07T04:06:38.541Z,33.07
2018-03-07T04:09:07.010Z,39.63
2018-03-07T04:11:35.506Z,35.70
2018-03-07T04:14:03.992Z,37.90
2018-03-07T04:16:32.498Z,41.07
2018-03-07T04:19:00.995Z,43.50
2018-03-07T04:21:29.456Z,40.07
2018-03-07T04:23:57.950Z,42.23
2018-03-07T04:26:26.431Z,44.60
2018-03-07T04:28:54.966Z,47.73
2018-03-07T04:31:23.430Z,45.37
2018-03-07T04:33:51.930Z,51.30
2018-03-07T04:36:20.454Z,45.50
2018-03-07T04:38:48.914Z,50.23
2018-03-07T04:41:17.387Z,47.03
2018-03-07T04:43:45.887Z,43.97
2018-03-07T04:46:14.349Z,35.80
2018-03-07T04:48:42.838Z,38.10
2018-03-07T04:51:11.290Z,44.37
2018-03-07T04:53:39.787Z,46.77
2018-03-07T04:56:08.283Z,48.67
2018-03-07T04:58:36.728Z,46.57
2018-03-07T05:01:05.246Z,45.57
2018-03-07T05:03:33.706Z,43.27
2018-03-07T05:06:02.169Z,47.23
2018-03-07T05:08:30.662Z,49.53
2018-03-07T05:10:59.118Z,48.13
2018-03-07T05:13:27.658Z,47.10
2018-03-07T05:15:56.110Z,44.90
2018-03-07T05:18:24.611Z,45.90
2018-03-07T05:20:53.079Z,43.53
2018-03-07T05:23:21.543Z,45.53
2018-03-07T05:25:50.066Z,48.67
2018-03-07T05:28:18.574Z,62.13
2018-03-07T05:30:47.085Z,53.77
2018-03-07T05:33:15.546Z,47.03
2018-03-07T05:35:44.002Z,46.53
2018-03-07T05:38:12.510Z,51.73
2018-03-07T05:40:40.985Z,58.13
2018-03-07T05:43:09.501Z,51.83
2018-03-07T05:45:38.007Z,51.33
2018-03-07T05:48:06.462Z,58.20
2018-03-07T05:50:34.962Z,55.87
2018-03-07T05:53:03.426Z,49.83
2018-03-07T05:55:31.935Z,45.00
2018-03-07T05:58:00.438Z,54.40
2018-03-07T06:00:28.902Z,44.63
2018-03-07T06:02:57.410Z,51.37
2018-03-07T06:05:25.906Z,45.67
2018-03-07T06:07:54.412Z,43.97
2018-03-07T06:10:22.902Z,41.33
2018-03-07T06:12:51.357Z,47.57
2018-03-07T06:15:19.855Z,34.33
2018-03-07T06:17:48.362Z,38.90
2018-03-07T06:20:16.844Z,40.30
2018-03-07T06:22:45.346Z,40.43
2018-03-07T06:25:13.854Z,40.30
2018-03-07T06:27:42.322Z,45.67
2018-03-07T06:30:10.835Z,44.67
2018-03-07T06:32:39.306Z,43.57
2018-03-07T06:35:07.841Z,47.07
2018-03-07T06:37:36.385Z,44.93
2018-03-07T06:40:04.855Z,45.13
2018-03-07T06:42:33.347Z,46.40
2018-03-07T06:45:01.871Z,46.03
2018-03-07T06:47:30.714Z,45.17
2018-03-07T06:49:59.188Z,49.03
2018-03-07T06:52:27.734Z,53.13
2018-03-07T06:54:56.212Z,46.40
2018-03-07T06:57:24.685Z,52.27
2018-03-07T06:59:53.186Z,51.20
2018-03-07T07:02:21.650Z,50.17
2018-03-07T07:04:50.131Z,48.67
2018-03-07T07:07:18.627Z,51.23
2018-03-07T07:09:47.090Z,53.43
2018-03-07T07:12:15.583Z,49.43
2018-03-07T07:14:44.059Z,47.10
2018-03-07T07:17:12.563Z,46.60
2018-03-07T07:19:41.019Z,43.57
2018-03-07T07:22:10.103Z,44.23
2018-03-07T07:24:38.641Z,42.33
2018-03-07T07:27:07.114Z,39.13
2018-03-07T07:29:35.569Z,48.00
2018-03-07T07:32:04.101Z,39.67
2018-03-07T07:34:32.638Z,40.60
2018-03-07T07:37:01.106Z,42.07
2018-03-07T07:39:29.633Z,39.97
2018-03-07T07:41:58.141Z,38.33
2018-03-07T07:44:26.625Z,42.43
2018-03-07T07:46:55.104Z,42.60
2018-03-07T07:49:23.636Z,41.83
2018-03-07T07:51:52.151Z,45.10
2018-03-07T07:54:20.654Z,49.43
2018-03-07T07:56:49.135Z,40.53
2018-03-07T07:59:17.659Z,45.23
2018-03-07T08:01:46.135Z,48.37
2018-03-07T08:04:14.603Z,43.70
2018-03-07T08:06:43.119Z,44.67
2018-03-07T08:09:11.567Z,43.30
2018-03-07T08:11:40.062Z,47.23
2018-03-07T08:14:08.570Z,45.43
2018-03-07T08:16:37.038Z,42.43
2018-03-07T08:19:05.550Z,45.63
2018-03-07T08:21:34.031Z,49.63
2018-03-07T08:24:02.567Z,46.77
2018-03-07T08:26:31.117Z,47.53
2018-03-07T08:28:59.563Z,42.80
2018-03-07T08:31:28.069Z,42.63
2018-03-07T08:33:56.556Z,40.70
2018-03-07T08:36:25.054Z,45.67
2018-03-07T08:38:53.566Z,49.17
2018-03-07T08:41:22.096Z,46.93
2018-03-07T08:43:50.575Z,43.70
2018-03-07T08:46:19.115Z,48.87
2018-03-07T08:48:47.626Z,46.77
2018-03-07T08:51:16.090Z,43.60
2018-03-07T08:53:44.606Z,46.77
2018-03-07T08:56:13.074Z,42.83
2018-03-07T08:58:41.629Z,45.10
2018-03-07T09:01:10.155Z,45.33
2018-03-07T09:03:38.666Z,46.37
2018-03-07T09:06:07.174Z,51.30
2018-03-07T09:08:35.685Z,46.60
2018-03-07T09:11:04.185Z,50.83
2018-03-07T09:13:32.771Z,47.43
2018-03-07T09:16:01.302Z,47.97
2018-03-07T09:18:29.855Z,45.33
2018-03-07T09:20:58.327Z,52.85
2018-03-07T09:23:26.798Z,49.10
2018-03-07T09:25:55.314Z,50.47
2018-03-07T09:28:23.783Z,53.53
2018-03-07T09:30:52.282Z,53.90
2018-03-07T09:33:20.754Z,48.80
2018-03-07T09:35:49.271Z,53.13
2018-03-07T09:38:17.761Z,48.93
2018-03-07T09:40:46.256Z,50.20
2018-03-07T09:43:14.760Z,54.57
2018-03-07T09:45:43.221Z,52.30
2018-03-07T09:48:11.730Z,54.23
2018-03-07T09:50:40.239Z,54.20
2018-03-07T09:53:08.706Z,56.53
2018-03-07T09:55:37.399Z,61.53
2018-03-07T09:58:06.165Z,61.60
2018-03-07T10:00:34.978Z,65.40
2018-03-07T10:03:03.746Z,59.33
2018-03-07T10:05:32.609Z,59.23
2018-03-07T10:08:01.342Z,61.27
2018-03-07T10:10:29.911Z,54.23
2018-03-07T10:12:58.393Z,57.47
2018-03-07T10:15:28.009Z,54.37
2018-03-07T10:17:56.697Z,57.00
2018-03-07T10:20:25.212Z,56.87
2018-03-07T10:22:53.739Z,56.30
2018-03-07T10:25:22.251Z,55.33
2018-03-07T10:27:50.775Z,52.33
2018-03-07T10:30:19.243Z,55.73
2018-03-07T10:32:47.765Z,56.10
2018-03-07T10:35:16.266Z,49.37
2018-03-07T10:37:44.753Z,48.80
2018-03-07T10:40:13.267Z,48.90
2018-03-07T10:42:41.745Z,51.90
2018-03-07T10:45:10.284Z,50.43
2018-03-07T10:47:38.768Z,50.37
2018-03-07T10:50:07.252Z,50.83
2018-03-07T10:52:35.782Z,52.50
2018-03-07T10:55:04.323Z,54.90
2018-03-07T10:57:32.854Z,49.53
2018-03-07T11:00:01.317Z,50.30
2018-03-07T11:02:29.868Z,41.27
2018-03-07T11:04:58.366Z,42.70
2018-03-07T11:07:26.874Z,43.60
2018-03-07T11:09:55.374Z,47.60
2018-03-07T11:12:23.884Z,42.30
2018-03-07T11:14:52.327Z,37.23
2018-03-07T11:17:20.833Z,42.83
2018-03-07T11:19:49.338Z,43.07
2018-03-07T11:22:17.810Z,40.23
2018-03-07T11:24:46.286Z,44.20
2018-03-07T11:27:14.802Z,45.20
2018-03-07T11:29:43.273Z,46.53
2018-03-07T11:32:11.744Z,37.07
2018-03-07T11:34:40.262Z,47.10
2018-03-07T11:37:08.762Z,40.90
2018-03-07T11:39:37.254Z,43.57
2018-03-07T11:42:05.769Z,46.63
2018-03-07T11:44:34.276Z,43.50
2018-03-07T11:47:02.782Z,44.13
2018-03-07T11:49:31.287Z,30.97
2018-03-07T11:51:59.822Z,28.77
2018-03-07T11:54:28.304Z,31.23
2018-03-07T11:56:56.812Z,29.90
2018-03-07T11:59:25.282Z,31.30
2018-03-07T12:01:53.816Z,31.10
2018-03-07T12:04:22.336Z,27.10
2018-03-07T12:06:50.903Z,23.40
2018-03-07T12:09:19.386Z,22.60
2018-03-07T12:11:47.863Z,25.87
2018-03-07T12:14:16.409Z,26.43
2018-03-07T12:16:44.887Z,25.93
2018-03-07T12:19:13.431Z,23.00
2018-03-07T12:21:42.017Z,25.37
2018-03-07T12:24:10.541Z,25.60
2018-03-07T12:26:39.092Z,20.33
2018-03-07T12:29:07.562Z,24.03
2018-03-07T12:31:36.062Z,23.67
2018-03-07T12:34:04.633Z,15.00
2018-03-07T12:36:33.117Z,14.90
2018-03-07T12:39:01.618Z,15.83
2018-03-07T12:41:30.123Z,19.50
2018-03-07T12:43:58.658Z,17.03
2018-03-07T12:46:27.144Z,13.13
2018-03-07T12:48:55.679Z,13.43
2018-03-07T12:51:24.154Z,15.27
2018-03-07T12:53:52.646Z,13.67
2018-03-07T12:56:21.134Z,17.47
2018-03-07T12:58:49.672Z,18.73
2018-03-07T13:01:18.159Z,16.77
2018-03-07T13:03:46.644Z,20.57
2018-03-07T13:06:15.151Z,23.67
2018-03-07T13:08:43.615Z,15.93
2018-03-07T13:11:12.122Z,16.17
2018-03-07T13:13:40.586Z,14.77
2018-03-07T13:16:09.052Z,14.40
2018-03-07T13:18:37.550Z,13.57
2018-03-07T13:21:06.065Z,15.87
2018-03-07T13:23:34.577Z,14.80
2018-03-07T13:26:03.087Z,23.73
2018-03-07T13:28:31.585Z,15.47
2018-03-07T13:31:00.067Z,15.87
2018-03-07T13:33:28.583Z,17.60
2018-03-07T13:35:57.092Z,14.60
2018-03-07T13:38:25.574Z,14.77
2018-03-07T13:40:54.071Z,15.50
2018-03-07T13:43:22.570Z,15.37
2018-03-07T13:45:51.082Z,22.10
2018-03-07T13:48:19.602Z,17.33
2018-03-07T13:50:48.098Z,19.90
2018-03-07T13:53:16.562Z,16.17
2018-03-07T13:55:45.085Z,15.40
2018-03-07T13:58:13.743Z,15.90
2018-03-07T14:00:42.312Z,17.27
2018-03-07T14:03:10.804Z,18.33
2018-03-07T14:05:39.691Z,17.43
2018-03-07T14:08:08.202Z,22.20
2018-03-07T14:10:36.703Z,17.17
2018-03-07T14:13:05.194Z,20.30
2018-03-07T14:15:33.722Z,21.07
2018-03-07T14:18:02.203Z,18.03
2018-03-07T14:20:30.674Z,16.30
2018-03-07T14:22:59.180Z,16.73
2018-03-07T14:25:27.700Z,18.13
2018-03-07T14:27:56.210Z,20.00
2018-03-07T14:30:24.678Z,17.03
2018-03-07T14:32:53.154Z,14.93
2018-03-07T14:35:21.703Z,17.57
2018-03-07T14:37:50.175Z,23.40
2018-03-07T14:40:18.700Z,17.27
2018-03-07T14:42:47.156Z,12.83
2018-03-07T14:45:15.675Z,20.13
2018-03-07T14:47:44.170Z,14.40
2018-03-07T14:50:12.678Z,14.87
2018-03-07T14:52:41.230Z,15.80
2018-03-07T14:55:09.744Z,13.30
2018-03-07T14:57:38.265Z,13.27
2018-03-07T15:00:06.831Z,13.40
2018-03-07T15:02:35.299Z,16.53
2018-03-07T15:05:03.819Z,12.37
2018-03-07T15:07:32.326Z,18.27
2018-03-07T15:10:00.796Z,15.10
2018-03-07T15:12:29.330Z,23.87
2018-03-07T15:14:57.827Z,21.97
2018-03-07T15:17:26.371Z,19.17
2018-03-07T15:19:54.879Z,20.37
2018-03-07T15:22:23.348Z,17.37
2018-03-07T15:24:51.899Z,21.20
2018-03-07T15:27:20.430Z,23.10
2018-03-07T15:29:48.946Z,20.73
2018-03-07T15:32:17.407Z,24.43
2018-03-07T15:34:45.877Z,24.23
2018-03-07T15:37:14.391Z,20.30
2018-03-07T15:39:42.878Z,18.53
2018-03-07T15:42:11.382Z,27.90
2018-03-07T15:44:39.854Z,24.93
2018-03-07T15:47:08.371Z,27.57
2018-03-07T15:49:36.902Z,24.17
2018-03-07T15:52:05.382Z,23.47
2018-03-07T15:54:33.931Z,27.37
2018-03-07T15:57:02.381Z,25.20
2018-03-07T15:59:30.910Z,24.43
2018-03-07T16:01:59.386Z,23.70
2018-03-07T16:04:27.899Z,28.43
2018-03-07T16:06:56.406Z,31.13
2018-03-07T16:09:24.873Z,67.00
2018-03-07T16:11:53.382Z,53.67
2018-03-07T16:14:21.863Z,53.03
2018-03-07T16:16:50.326Z,35.67
2018-03-07T16:19:18.837Z,29.97
2018-03-07T16:21:47.310Z,34.40
2018-03-07T16:24:15.779Z,36.67
2018-03-07T16:26:44.265Z,31.23
2018-03-07T16:29:12.773Z,36.77
2018-03-07T16:31:41.247Z,29.37
2018-03-07T16:34:09.766Z,31.07
2018-03-07T16:36:38.295Z,37.30
2018-03-07T16:39:06.775Z,30.37
2018-03-07T16:41:35.286Z,34.30
2018-03-07T16:44:03.757Z,32.57
2018-03-07T16:46:32.266Z,35.47
2018-03-07T16:49:00.790Z,33.60
2018-03-07T16:51:29.312Z,44.37
2018-03-07T16:53:57.786Z,40.53
2018-03-07T16:56:26.289Z,39.67
2018-03-07T16:58:54.754Z,34.40
2018-03-07T17:01:23.254Z,39.03
2018-03-07T17:03:51.754Z,41.43
2018-03-07T17:06:20.306Z,44.07
2018-03-07T17:08:48.798Z,42.53
2018-03-07T17:11:17.263Z,45.10
2018-03-07T17:13:45.776Z,41.40
2018-03-07T17:16:14.250Z,40.67
2018-03-07T17:18:42.767Z,40.07
2018-03-07T17:21:11.237Z,48.00
2018-03-07T17:23:39.738Z,44.97
2018-03-07T17:26:08.250Z,52.83
2018-03-07T17:28:36.718Z,37.63
2018-03-07T17:31:05.215Z,39.90
2018-03-07T17:33:33.723Z,48.63
2018-03-07T17:36:02.200Z,55.83
2018-03-07T17:38:30.711Z,49.07
2018-03-07T17:40:59.209Z,50.40
2018-03-07T17:43:27.670Z,42.87
2018-03-07T17:45:56.171Z,51.40
2018-03-07T17:48:24.675Z,52.53
2018-03-07T17:50:53.138Z,53.77
2018-03-07T17:53:21.639Z,60.20
2018-03-07T17:55:50.126Z,47.90
2018-03-07T17:58:18.634Z,53.30
2018-03-07T18:00:47.163Z,52.67
2018-03-07T18:03:15.675Z,55.10
2018-03-07T18:05:44.150Z,55.13
2018-03-07T18:08:12.618Z,55.77
2018-03-07T18:10:41.115Z,62.23
2018-03-07T18:13:09.579Z,67.17
2018-03-07T18:15:38.087Z,64.83
2018-03-07T18:18:06.559Z,70.17
2018-03-07T18:20:35.074Z,71.83
2018-03-07T18:23:03.590Z,82.10
2018-03-07T18:25:32.048Z,72.30
2018-03-07T18:28:00.578Z,73.03
2018-03-07T18:30:29.078Z,68.77
2018-03-07T18:32:57.577Z,68.33
2018-03-07T18:35:26.039Z,70.90
2018-03-07T18:37:54.550Z,74.47
2018-03-07T18:40:23.018Z,64.90
2018-03-07T18:42:51.495Z,71.27
2018-03-07T18:45:19.999Z,63.53
2018-03-07T18:47:48.515Z,68.67
2018-03-07T18:50:16.986Z,66.67
2018-03-07T18:52:45.511Z,70.10
2018-03-07T18:55:13.970Z,71.37
2018-03-07T18:57:42.499Z,68.53
2018-03-07T19:00:11.001Z,63.00
2018-03-07T19:02:39.461Z,69.00
2018-03-07T19:05:07.986Z,69.33
2018-03-07T19:07:36.451Z,58.10
2018-03-07T19:10:04.928Z,78.97
2018-03-07T19:12:33.471Z,82.20
2018-03-07T19:15:01.960Z,81.13
2018-03-07T19:17:30.466Z,86.37
2018-03-07T19:19:58.966Z,88.03
2018-03-07T19:22:27.426Z,64.20
2018-03-07T19:24:55.930Z,74.57
2018-03-07T19:27:24.393Z,68.67
2018-03-07T19:29:52.895Z,61.33
2018-03-07T19:32:21.367Z,56.27
2018-03-07T19:34:49.879Z,64.70
2018-03-07T19:37:18.385Z,66.30
2018-03-07T19:39:46.850Z,66.10
2018-03-07T19:42:15.354Z,98.13
2018-03-07T19:44:43.830Z,79.17
2018-03-07T19:47:12.330Z,72.37
2018-03-07T19:49:40.851Z,67.53
2018-03-07T19:52:09.362Z,63.83
2018-03-07T19:54:37.826Z,63.20
2018-03-07T19:57:06.342Z,62.17
2018-03-07T19:59:34.846Z,58.43
2018-03-07T20:02:03.345Z,55.70
2018-03-07T20:04:31.814Z,54.97
2018-03-07T20:07:00.314Z,60.40
2018-03-07T20:09:28.815Z,63.23
2018-03-07T20:11:57.320Z,60.73
2018-03-07T20:14:25.795Z,64.73
2018-03-07T20:16:54.314Z,59.13
2018-03-07T20:19:22.778Z,60.00
2018-03-07T20:21:51.285Z,63.67
2018-03-07T20:24:19.755Z,65.13
2018-03-07T20:26:48.244Z,70.90
2018-03-07T20:29:16.711Z,75.67
2018-03-07T20:31:45.226Z,74.53
2018-03-07T20:34:13.702Z,72.33
2018-03-07T20:36:42.244Z,72.77
2018-03-07T20:39:10.722Z,67.60
2018-03-07T20:41:39.188Z,66.50
2018-03-07T20:44:07.691Z,67.57
2018-03-07T20:46:36.154Z,64.17
2018-03-07T20:49:05.711Z,63.73
2018-03-07T20:51:34.220Z,64.70
2018-03-07T20:54:02.706Z,55.63
2018-03-07T20:56:31.251Z,61.23
2018-03-07T20:58:59.722Z,60.83
2018-03-07T21:01:28.243Z,61.23
2018-03-07T21:03:56.750Z,61.57
2018-03-07T21:06:25.249Z,59.70
2018-03-07T21:08:53.727Z,58.30
2018-03-07T21:11:22.237Z,60.77
2018-03-07T21:13:50.743Z,71.83
2018-03-07T21:16:19.215Z,68.93
2018-03-07T21:18:47.690Z,61.77
2018-03-07T21:21:16.211Z,63.63
2018-03-07T21:23:44.713Z,68.17
2018-03-07T21:26:13.200Z,64.53
2018-03-07T21:28:41.903Z,62.77
2018-03-07T21:31:10.374Z,66.53
2018-03-07T21:33:38.858Z,64.13
2018-03-07T21:36:07.367Z,68.37
2018-03-07T21:38:35.849Z,70.87
2018-03-07T21:41:04.314Z,72.27
2018-03-07T21:43:32.830Z,77.60
2018-03-07T21:46:01.298Z,79.00
2018-03-07T21:48:29.757Z,76.37
2018-03-07T21:50:58.257Z,72.13
2018-03-07T21:53:26.728Z,75.37
2018-03-07T21:55:55.194Z,74.03
2018-03-07T21:58:23.698Z,76.87
2018-03-07T22:00:52.202Z,70.20
2018-03-07T22:03:20.719Z,68.97
2018-03-07T22:05:49.213Z,77.17
2018-03-07T22:08:17.724Z,72.23
2018-03-07T22:10:46.208Z,79.40
2018-03-07T22:13:14.734Z,79.07
2018-03-07T22:15:43.244Z,84.30
2018-03-07T22:18:11.710Z,83.50
2018-03-07T22:20:41.100Z,71.37
2018-03-07T22:23:09.607Z,77.27
2018-03-07T22:25:38.066Z,82.00
2018-03-07T22:28:06.581Z,75.33
2018-03-07T22:30:35.062Z,78.30
2018-03-07T22:33:03.558Z,73.20
2018-03-07T22:35:32.026Z,74.93
2018-03-07T22:38:00.532Z,68.80
2018-03-07T22:40:28.990Z,62.17
2018-03-07T22:42:57.454Z,72.20
2018-03-07T22:45:25.931Z,57.97
2018-03-07T22:47:54.389Z,63.43
2018-03-07T22:50:22.888Z,65.10
2018-03-07T22:52:51.341Z,56.67
2018-03-07T22:55:19.815Z,50.17
2018-03-07T22:57:48.272Z,57.27
2018-03-07T23:00:25.093Z,57.73
2018-03-07T23:02:53.589Z,57.57
2018-03-07T23:05:22.058Z,56.17
2018-03-07T23:07:50.560Z,61.07
2018-03-07T23:10:19.024Z,56.37
2018-03-07T23:12:47.522Z,56.30
2018-03-07T23:15:15.986Z,51.97
2018-03-07T23:17:44.514Z,51.83
2018-03-07T23:20:12.974Z,60.83
2018-03-07T23:22:41.457Z,67.37
2018-03-07T23:25:09.966Z,64.47
2018-03-07T23:27:38.440Z,63.13
2018-03-07T23:30:06.937Z,67.83
2018-03-07T23:32:35.424Z,57.63
2018-03-07T23:35:03.950Z,61.20
2018-03-07T23:37:32.448Z,56.87
2018-03-07T23:40:00.942Z,58.37
2018-03-07T23:42:29.452Z,54.40
2018-03-07T23:44:57.934Z,58.33
2018-03-07T23:47:26.415Z,58.33
2018-03-07T23:49:54.925Z,56.53
2018-03-07T23:52:23.380Z,48.17
2018-03-07T23:54:51.923Z,44.83
2018-03-07T23:57:20.414Z,45.33
2018-03-07T23:59:48.877Z,40.57
